Flight Track Log - Related Links

Times and Time Zones

All times are in EDT time to prevent confusion due to time zone crossing. See the ASQ5874 flight status page for this flight to view local times or setup timezone preferences in your user account.


Time Position Orientation Groundspeed Altitude Reporting Facility
EDT Latitude Longitude Course Direction KTS MPH feet Rate Location/Type
Sat 09:05:39 AM 41.9333 -87.9333 261° West 175 201 3,000  Level Chicago TRACON
Sat 09:06:33 AM 41.9167 -87.9833 246° West 238 274 4,800 2,283 Climbing Chicago TRACON
Sat 09:08:00 AM 41.9167 -88.4240 270° West  Level FlightAware Approximate
Sat 09:09:00 AM 41.9061 -88.5569 261° West  Level FlightAware Approximate
Sat 09:09:04 AM 41.9392 -88.2139 278° West 265 305 10,800  Level Chicago Center
Sat 09:10:00 AM 41.8905 -88.6892 261° West  Level FlightAware Approximate
Sat 09:10:05 AM 41.9325 -88.3200 265° West 282 325 12,800  Level Chicago Center
Sat 09:11:07 AM 41.9278 -88.4314 267° West 298 343 14,800 1,902 Climbing Chicago Center
Sat 09:12:08 AM 41.9222 -88.5472 266° West 312 359 16,700 2,000 Climbing Chicago Center
Sat 09:13:10 AM 41.9175 -88.6867 267° West 315 362 18,900 1,854 Climbing Chicago Center
Sat 09:14:11 AM 41.9058 -88.8017 262° West 316 364 20,500 1,268 Climbing Chicago Center
Sat 09:15:13 AM 41.8922 -88.9258 262° West 336 387 21,500 927 Climbing Chicago Center
Sat 09:16:14 AM 41.8761 -89.0586 261° West 357 411 22,400 927 Climbing Chicago Center
Sat 09:17:16 AM 41.8608 -89.1944 261° West 369 425 23,400 927 Climbing Chicago Center
Sat 09:18:17 AM 41.8436 -89.3358 261° West 385 443 24,300 1,024 Climbing Chicago Center
Sat 09:19:19 AM 41.8286 -89.5042 263° West 383 441 25,500 1,016 Climbing Chicago Center
Sat 09:20:21 AM 41.8139 -89.6456 262° West 385 443 26,400 976 Climbing Chicago Center
Sat 09:21:22 AM 41.7989 -89.7900 262° West 393 452 27,500 1,073 Climbing Chicago Center
Sat 09:22:24 AM 41.7847 -89.9264 262° West 390 449 28,600 1,268 Climbing Chicago Center
Sat 09:23:25 AM 41.7706 -90.0672 262° West 386 444 30,100 1,415 Climbing Chicago Center
Sat 09:24:27 AM 41.7556 -90.2061 262° West 382 440 31,500 927 Climbing Chicago Center
Sat 09:25:28 AM 41.7397 -90.3492 262° West 387 445 32,000 244 Climbing Chicago Center
Sat 09:26:30 AM 41.7200 -90.5272 262° West 402 463 32,000  Level Chicago Center
Sat 09:27:31 AM 41.7033 -90.6761 262° West 408 470 32,000  Level Chicago Center
Sat 09:28:33 AM 41.6864 -90.8244 261° West 408 470 32,000  Level Chicago Center
Sat 09:29:34 AM 41.6694 -90.9697 261° West 400 460 32,000  Level Chicago Center
Sat 09:30:36 AM 41.6531 -91.1186 262° West 403 464 32,000  Level Chicago Center
Sat 09:31:38 AM 41.6353 -91.2733 261° West 415 478 32,000  Level Chicago Center
Sat 09:32:39 AM 41.6131 -91.4589 261° West 421 484 32,000  Level Chicago Center
Sat 09:33:41 AM 41.5947 -91.6133 261° West 423 487 32,000  Level Chicago Center
Sat 09:34:42 AM 41.5758 -91.7661 261° West 421 484 32,000  Level Chicago Center
Sat 09:35:44 AM 41.5478 -91.9161 256° West 420 483 32,000  Level Chicago Center
Sat 09:36:45 AM 41.4900 -92.0481 240° Southwest 416 479 32,000  Level Chicago Center
Sat 09:37:47 AM 41.4306 -92.1789 239° Southwest 414 476 32,000  Level Chicago Center
Sat 09:38:49 AM 41.3714 -92.3106 239° Southwest 416 479 32,000  Level Chicago Center
Sat 09:39:50 AM 41.3028 -92.4603 239° Southwest 411 473 32,000  Level Chicago Center
Sat 09:40:52 AM 41.2436 -92.5886 239° Southwest 411 473 32,000  Level Chicago Center
Sat 09:41:54 AM 41.1847 -92.7189 239° Southwest 415 478 32,000  Level Chicago Center
Sat 09:42:55 AM 41.1253 -92.8447 238° Southwest 409 471 32,000  Level Chicago Center
Sat 09:43:57 AM 41.0561 -92.9961 239° Southwest 404 465 32,000  Level Chicago Center
Sat 09:44:58 AM 40.9969 -93.1200 238° Southwest 403 464 32,000  Level Chicago Center
Sat 09:45:33 AM 40.9625 -93.1953 239° Southwest 403 464 32,000  Level Minneapolis Center
Sat 09:46:35 AM 40.9039 -93.3197 238° Southwest 402 463 32,000  Level Minneapolis Center
Sat 09:47:36 AM 40.8464 -93.4439 239° Southwest 403 464 32,000  Level Minneapolis Center
Sat 09:48:03 AM 40.8217 -93.4961 238° Southwest 407 468 32,000  Level Chicago Center
Sat 09:49:04 AM 40.7625 -93.6192 238° Southwest 403 464 32,000  Level Chicago Center
Sat 09:49:39 AM 40.7272 -93.6928 238° Southwest 406 467 32,000  Level Minneapolis Center
Sat 09:50:40 AM 40.6681 -93.8181 238° Southwest 406 467 32,000  Level Minneapolis Center
Sat 09:51:41 AM 40.6036 -93.9742 242° Southwest 411 473 32,000  Level Minneapolis Center
Sat 09:52:42 AM 40.6106 -94.1172 274° West 401 461 32,000  Level Minneapolis Center
Sat 09:53:44 AM 40.6258 -94.2611 278° West 400 460 32,000  Level Minneapolis Center
Sat 09:54:45 AM 40.6392 -94.4028 277° West 396 456 32,000 -197 Level Minneapolis Center
Sat 09:55:46 AM 40.6533 -94.5447 278° West 395 455 31,600 -1,033 Descending Minneapolis Center
Sat 09:56:47 AM 40.6692 -94.7078 277° West 401 461 29,900 -1,561 Descending Minneapolis Center
Sat 09:57:49 AM 40.6842 -94.8578 278° West 408 470 28,400 -1,525 Descending Minneapolis Center
Sat 09:58:49 AM 40.7117 -95.0069 284° West 414 476 26,800 -1,475 Descending Minneapolis Center
Sat 09:59:51 AM 40.7122 -95.1631 270° West 419 482 25,400 -1,452 Descending Minneapolis Center
Sat 10:00:53 AM 40.7269 -95.3197 277° West 426 490 23,800 -1,632 Descending Minneapolis Center
Sat 10:01:45 AM 40.7461 -95.4542 281° West 407 468 22,300 -1,607 Descending Minneapolis Center
Sat 10:02:45 AM 40.7581 -95.5958 276° West 384 442 20,800 -1,686 Descending Minneapolis Center
Sat 10:03:46 AM 40.7669 -95.7269 275° West 358 412 18,900 -1,934 Descending Minneapolis Center
Sat 10:04:46 AM 40.7758 -95.8581 275° West 357 411 16,900 -2,033 Descending Minneapolis Center
Sat 10:05:47 AM 40.7861 -95.9808 276° West 316 364 14,800 -1,967 Descending Minneapolis Center
Sat 10:06:48 AM 40.7956 -96.0925 276° West 304 350 12,900 -1,785 Descending Minneapolis Center
Sat 10:07:48 AM 40.8167 -96.1922 286° West 271 312 11,200 -1,785 Descending Minneapolis Center
Sat 10:08:49 AM 40.8375 -96.2917 286° West 262 302 9,300 -1,737 Descending Minneapolis Center
Sat 10:09:04 AM 40.8467 -96.3131 300° West 266 306 9,000 -1,600 Descending Minneapolis Center
Sat 10:09:49 AM 40.8556 -96.3806 280° West 258 297 7,700 -1,672 Descending Minneapolis Center
Sat 10:10:05 AM 40.8667 -96.4056 300° West 262 302 7,300 -1,279 Descending Minneapolis Center
Sat 10:10:50 AM 40.8761 -96.4747 280° West 254 292 6,400 -1,082 Descending Minneapolis Center
Sat 10:11:06 AM 40.8864 -96.4947 304° West 256 295 6,200 -1,279 Descending Minneapolis Center
Sat 10:11:51 AM 40.8917 -96.5586 276° West 234 269 5,100 -1,355 Descending Minneapolis Center
Sat 10:12:08 AM 40.9061 -96.5792 313° West 250 288 4,800 -1,300 Descending Minneapolis Center
Sat 10:12:51 AM 40.9089 -96.6339 274° West 214 246 3,800 -1,180 Descending Minneapolis Center
Sat 10:13:09 AM 40.9233 -96.6542 313° West 235 270 3,600 -667 Descending Minneapolis Center

Login

Don't have an account? Register now (free) for customized features, flight alerts, and more!